createdAt,value
2019-02-10T00:00:19.937Z,0
2019-02-10T00:01:28.002Z,0
2019-02-10T00:02:36.053Z,0
2019-02-10T00:03:44.106Z,0
2019-02-10T00:04:52.140Z,0
2019-02-10T00:06:00.218Z,0
2019-02-10T00:07:08.289Z,0
2019-02-10T00:08:16.333Z,0
2019-02-10T00:09:24.404Z,0
2019-02-10T00:10:32.439Z,0
2019-02-10T00:11:40.512Z,0
2019-02-10T00:12:48.553Z,0
2019-02-10T00:13:56.617Z,0
2019-02-10T00:15:04.672Z,0
2019-02-10T00:16:12.742Z,0
2019-02-10T00:17:21.020Z,0
2019-02-10T00:18:28.856Z,0
2019-02-10T00:19:36.903Z,0
2019-02-10T00:20:44.957Z,0
2019-02-10T00:21:53.032Z,0
2019-02-10T00:23:01.095Z,0
2019-02-10T00:24:09.136Z,0
2019-02-10T00:25:17.191Z,0
2019-02-10T00:26:25.379Z,0
2019-02-10T00:27:33.306Z,0
2019-02-10T00:28:41.341Z,0
2019-02-10T00:29:49.416Z,0
2019-02-10T00:30:57.486Z,0
2019-02-10T00:32:05.530Z,0
2019-02-10T00:33:13.599Z,0
2019-02-10T00:34:21.630Z,0
2019-02-10T00:35:29.710Z,0
2019-02-10T00:36:37.778Z,0
2019-02-10T00:37:45.833Z,0
2019-02-10T00:38:53.870Z,0
2019-02-10T00:40:01.910Z,0
2019-02-10T00:41:09.992Z,0
2019-02-10T00:42:18.054Z,0
2019-02-10T00:43:26.558Z,0
2019-02-10T00:44:34.163Z,0
2019-02-10T00:45:42.225Z,0
2019-02-10T00:46:50.285Z,0
2019-02-10T00:47:58.343Z,0
2019-02-10T00:49:06.388Z,0
2019-02-10T00:50:14.469Z,0
2019-02-10T00:51:22.505Z,0
2019-02-10T00:52:30.594Z,0
2019-02-10T00:53:38.630Z,0
2019-02-10T00:54:46.677Z,0
2019-02-10T00:55:54.741Z,0
2019-02-10T00:57:02.793Z,0
2019-02-10T00:58:10.850Z,0
2019-02-10T00:59:18.911Z,0
2019-02-10T01:00:26.956Z,0
2019-02-10T01:01:35.025Z,0
2019-02-10T01:02:43.072Z,0
2019-02-10T01:03:51.146Z,0
2019-02-10T01:04:59.198Z,0
2019-02-10T01:06:07.253Z,0
2019-02-10T01:07:15.306Z,0
2019-02-10T01:08:23.383Z,0
2019-02-10T01:09:31.407Z,0
2019-02-10T01:10:39.487Z,0
2019-02-10T01:11:47.535Z,0
2019-02-10T01:12:55.603Z,0
2019-02-10T01:14:03.658Z,0
2019-02-10T01:15:11.683Z,0
2019-02-10T01:16:19.783Z,0
2019-02-10T01:17:27.834Z,0
2019-02-10T01:18:35.891Z,0
2019-02-10T01:19:43.951Z,0
2019-02-10T01:20:51.971Z,0
2019-02-10T01:22:00.052Z,0
2019-02-10T01:23:08.115Z,0
2019-02-10T01:24:16.153Z,0
2019-02-10T01:25:24.235Z,0
2019-02-10T01:26:32.259Z,0
2019-02-10T01:27:40.346Z,0
2019-02-10T01:28:48.406Z,0
2019-02-10T01:29:56.463Z,0
2019-02-10T01:31:04.519Z,0
2019-02-10T01:32:12.568Z,0
2019-02-10T01:33:20.625Z,0
2019-02-10T01:34:28.678Z,0
2019-02-10T01:35:36.748Z,0
2019-02-10T01:36:49.592Z,0
2019-02-10T01:37:52.860Z,0
2019-02-10T01:39:00.944Z,0
2019-02-10T01:40:08.988Z,0
2019-02-10T01:41:17.037Z,0
2019-02-10T01:42:25.078Z,0
2019-02-10T01:43:33.133Z,0
2019-02-10T01:44:41.212Z,0
2019-02-10T01:45:49.244Z,0
2019-02-10T01:46:57.317Z,0
2019-02-10T01:48:05.383Z,0
2019-02-10T01:49:13.434Z,0
2019-02-10T01:50:21.473Z,0
2019-02-10T01:51:29.547Z,0
2019-02-10T01:52:37.610Z,0
2019-02-10T01:53:45.676Z,0
2019-02-10T01:54:53.725Z,0
2019-02-10T01:56:01.787Z,0
2019-02-10T01:57:09.835Z,0
2019-02-10T01:58:17.901Z,0
2019-02-10T01:59:25.946Z,0
2019-02-10T02:00:34.011Z,0
2019-02-10T02:01:42.032Z,0
2019-02-10T02:02:50.128Z,0
2019-02-10T02:03:58.173Z,0
2019-02-10T02:05:06.228Z,0
2019-02-10T02:06:14.288Z,0
2019-02-10T02:07:22.326Z,0
2019-02-10T02:08:30.396Z,0
2019-02-10T02:09:38.449Z,0
2019-02-10T02:10:46.509Z,0
2019-02-10T02:11:54.612Z,0
2019-02-10T02:13:02.640Z,0
2019-02-10T02:14:10.682Z,0
2019-02-10T02:15:18.741Z,0
2019-02-10T02:16:26.818Z,0
2019-02-10T02:17:34.870Z,0
2019-02-10T02:18:42.928Z,0
2019-02-10T02:19:50.975Z,0
2019-02-10T02:20:59.034Z,0
2019-02-10T02:22:07.090Z,0
2019-02-10T02:23:15.143Z,0
2019-02-10T02:24:23.223Z,0
2019-02-10T02:25:31.255Z,0
2019-02-10T02:26:39.325Z,0
2019-02-10T02:27:47.385Z,0
2019-02-10T02:28:55.444Z,0
2019-02-10T02:30:03.502Z,0
2019-02-10T02:31:11.539Z,0
2019-02-10T02:32:19.605Z,0
2019-02-10T02:33:27.663Z,0
2019-02-10T02:34:35.744Z,0
2019-02-10T02:35:43.787Z,0
2019-02-10T02:36:51.823Z,0
2019-02-10T02:37:59.898Z,0
2019-02-10T02:39:07.949Z,0
2019-02-10T02:40:16.018Z,0
2019-02-10T02:41:24.079Z,0
2019-02-10T02:42:32.099Z,0
2019-02-10T02:43:40.215Z,0
2019-02-10T02:44:48.242Z,0
2019-02-10T02:45:56.303Z,0
2019-02-10T02:47:04.369Z,0
2019-02-10T02:48:12.421Z,0
2019-02-10T02:49:20.479Z,0
2019-02-10T02:50:28.532Z,0
2019-02-10T02:51:36.575Z,0
2019-02-10T02:52:44.660Z,0
2019-02-10T02:53:52.707Z,0
2019-02-10T02:55:00.743Z,0
2019-02-10T02:56:08.817Z,0
2019-02-10T02:57:16.886Z,0
2019-02-10T02:58:24.920Z,0
2019-02-10T02:59:33.036Z,0
2019-02-10T03:00:41.041Z,0
2019-02-10T03:01:49.109Z,0
2019-02-10T03:02:57.155Z,0
2019-02-10T03:04:05.212Z,0
2019-02-10T03:05:13.293Z,0
2019-02-10T03:06:21.332Z,0
2019-02-10T03:07:29.395Z,0
2019-02-10T03:08:37.440Z,0
2019-02-10T03:09:45.497Z,0
2019-02-10T03:10:53.556Z,0
2019-02-10T03:12:01.597Z,0
2019-02-10T03:13:09.664Z,0
2019-02-10T03:14:17.740Z,0
2019-02-10T03:15:25.807Z,0
2019-02-10T03:16:33.867Z,0
2019-02-10T03:17:41.884Z,0
2019-02-10T03:18:53.094Z,0
2019-02-10T03:19:58.032Z,0
2019-02-10T03:21:06.085Z,0
2019-02-10T03:22:14.138Z,0
2019-02-10T03:23:22.170Z,0
2019-02-10T03:24:30.258Z,0
2019-02-10T03:25:38.295Z,0
2019-02-10T03:26:46.364Z,0
2019-02-10T03:27:54.409Z,0
2019-02-10T03:29:02.480Z,0
2019-02-10T03:30:10.575Z,0
2019-02-10T03:31:18.624Z,0
2019-02-10T03:32:26.678Z,0
2019-02-10T03:33:34.710Z,0
2019-02-10T03:34:42.767Z,0
2019-02-10T03:35:50.827Z,0
2019-02-10T03:36:58.874Z,0
2019-02-10T03:38:06.940Z,0
2019-02-10T03:39:14.997Z,0
2019-02-10T03:40:23.053Z,0
2019-02-10T03:41:31.103Z,0
2019-02-10T03:42:39.185Z,0
2019-02-10T03:43:47.217Z,0
2019-02-10T03:44:55.278Z,0
2019-02-10T03:46:03.340Z,0
2019-02-10T03:47:11.380Z,0
2019-02-10T03:48:19.485Z,0
2019-02-10T03:49:27.514Z,0
2019-02-10T03:50:35.565Z,0
2019-02-10T03:51:43.637Z,0
2019-02-10T03:52:51.687Z,0
2019-02-10T03:53:59.738Z,0
2019-02-10T03:55:07.795Z,0
2019-02-10T03:56:15.856Z,0
2019-02-10T03:57:23.913Z,0
2019-02-10T03:58:31.947Z,0
2019-02-10T03:59:40.018Z,0
2019-02-10T04:00:48.087Z,0
2019-02-10T04:01:56.138Z,0
2019-02-10T04:03:04.199Z,0
2019-02-10T04:04:12.267Z,0
2019-02-10T04:05:20.312Z,0
2019-02-10T04:06:28.372Z,0
2019-02-10T04:07:36.592Z,0
2019-02-10T04:08:44.461Z,0
2019-02-10T04:09:52.558Z,0
2019-02-10T04:11:00.591Z,0
2019-02-10T04:12:08.657Z,0
2019-02-10T04:13:16.709Z,0
2019-02-10T04:14:24.769Z,0
2019-02-10T04:15:32.822Z,0
2019-02-10T04:16:40.889Z,0
2019-02-10T04:17:48.990Z,0
2019-02-10T04:18:57.001Z,0
2019-02-10T04:20:05.057Z,0
2019-02-10T04:21:13.105Z,0
2019-02-10T04:22:21.166Z,0
2019-02-10T04:23:29.231Z,0
2019-02-10T04:24:37.273Z,0
2019-02-10T04:25:45.332Z,0
2019-02-10T04:26:53.381Z,0
2019-02-10T04:28:01.446Z,0
2019-02-10T04:29:09.511Z,0
2019-02-10T04:30:17.566Z,0
2019-02-10T04:31:25.628Z,0
2019-02-10T04:32:33.692Z,0
2019-02-10T04:33:41.740Z,0
2019-02-10T04:34:49.813Z,0
2019-02-10T04:35:57.841Z,0
2019-02-10T04:37:05.918Z,0
2019-02-10T04:38:13.951Z,0
2019-02-10T04:39:21.994Z,0
2019-02-10T04:40:30.075Z,0
2019-02-10T04:41:38.141Z,0
2019-02-10T04:42:46.193Z,0
2019-02-10T04:43:54.245Z,0
2019-02-10T04:45:02.289Z,0
2019-02-10T04:46:10.360Z,0
2019-02-10T04:47:18.511Z,0
2019-02-10T04:48:26.455Z,0
2019-02-10T04:49:34.534Z,0
2019-02-10T04:50:42.627Z,0
2019-02-10T04:51:50.641Z,0
2019-02-10T04:52:58.697Z,0
2019-02-10T04:54:06.760Z,0
2019-02-10T04:55:14.821Z,0
2019-02-10T04:56:22.886Z,0
2019-02-10T04:57:30.928Z,0
2019-02-10T04:58:38.996Z,0
2019-02-10T04:59:47.043Z,0
2019-02-10T05:00:55.099Z,0
2019-02-10T05:02:03.152Z,0
2019-02-10T05:03:11.208Z,0
2019-02-10T05:04:19.272Z,0
2019-02-10T05:05:27.315Z,0
2019-02-10T05:06:35.407Z,0
2019-02-10T05:07:43.429Z,0
2019-02-10T05:08:51.495Z,0
2019-02-10T05:09:59.554Z,0
2019-02-10T05:11:07.613Z,0
2019-02-10T05:12:15.675Z,0
2019-02-10T05:13:23.735Z,0
2019-02-10T05:14:31.749Z,0
2019-02-10T05:15:39.842Z,0
2019-02-10T05:16:47.902Z,0
2019-02-10T05:17:55.962Z,0
2019-02-10T05:19:04.018Z,0
2019-02-10T05:20:12.035Z,0
2019-02-10T05:21:20.130Z,0
2019-02-10T05:22:28.193Z,0
2019-02-10T05:23:36.285Z,0
2019-02-10T05:24:44.303Z,0
2019-02-10T05:25:52.334Z,0
2019-02-10T05:27:00.411Z,0
2019-02-10T05:28:08.468Z,0
2019-02-10T05:29:16.532Z,0
2019-02-10T05:30:24.567Z,0
2019-02-10T05:31:32.645Z,0
2019-02-10T05:32:40.708Z,0
2019-02-10T05:33:48.730Z,0
2019-02-10T05:34:56.808Z,0
2019-02-10T05:36:04.865Z,0
2019-02-10T05:37:12.921Z,0
2019-02-10T05:38:20.986Z,0
2019-02-10T05:39:29.039Z,0
2019-02-10T05:40:37.106Z,0
2019-02-10T05:41:45.148Z,0
2019-02-10T05:42:53.206Z,0
2019-02-10T05:44:01.252Z,0
2019-02-10T05:45:09.333Z,0
2019-02-10T05:46:17.397Z,0
2019-02-10T05:47:25.432Z,0
2019-02-10T05:48:33.491Z,0
2019-02-10T05:49:41.527Z,0
2019-02-10T05:50:49.603Z,0
2019-02-10T05:51:57.658Z,0
2019-02-10T05:53:05.709Z,0
2019-02-10T05:54:13.786Z,0
2019-02-10T05:55:21.826Z,0
2019-02-10T05:56:29.889Z,0
2019-02-10T05:57:37.936Z,0
2019-02-10T05:58:45.995Z,0
2019-02-10T05:59:54.067Z,0
2019-02-10T06:01:02.108Z,0
2019-02-10T06:02:10.196Z,0
2019-02-10T06:03:18.240Z,0
2019-02-10T06:04:26.293Z,0
2019-02-10T06:05:34.368Z,0
2019-02-10T06:06:42.419Z,0
2019-02-10T06:07:50.488Z,0
2019-02-10T06:08:58.554Z,0
2019-02-10T06:10:06.581Z,0
2019-02-10T06:11:14.637Z,0
2019-02-10T06:12:22.699Z,0
2019-02-10T06:13:30.763Z,0
2019-02-10T06:14:38.804Z,0
2019-02-10T06:15:46.872Z,0
2019-02-10T06:16:54.920Z,0
2019-02-10T06:18:02.987Z,0
2019-02-10T06:19:11.045Z,0
2019-02-10T06:20:19.092Z,0
2019-02-10T06:21:27.172Z,0
2019-02-10T06:22:35.204Z,0
2019-02-10T06:23:43.278Z,0
2019-02-10T06:24:51.323Z,0
2019-02-10T06:25:59.393Z,0
2019-02-10T06:27:07.457Z,0
2019-02-10T06:28:15.766Z,0
2019-02-10T06:29:24.555Z,0
2019-02-10T06:30:32.632Z,0
2019-02-10T06:31:40.671Z,0
2019-02-10T06:32:48.725Z,0
2019-02-10T06:33:56.772Z,0
2019-02-10T06:35:04.855Z,0
2019-02-10T06:36:12.918Z,0
2019-02-10T06:37:20.958Z,0
2019-02-10T06:38:29.015Z,0
2019-02-10T06:39:37.070Z,0
2019-02-10T06:40:45.130Z,0
2019-02-10T06:41:53.208Z,5
2019-02-10T06:43:01.240Z,5
2019-02-10T06:44:09.410Z,5
2019-02-10T06:45:17.353Z,5
2019-02-10T06:46:25.414Z,5
2019-02-10T06:47:33.469Z,5
2019-02-10T06:48:41.517Z,5
2019-02-10T06:49:49.605Z,10
2019-02-10T06:50:57.652Z,10
2019-02-10T06:52:05.706Z,10
2019-02-10T06:53:13.777Z,10
2019-02-10T06:54:21.794Z,10
2019-02-10T06:55:29.875Z,15
2019-02-10T06:56:37.949Z,15
2019-02-10T06:57:46.005Z,15
2019-02-10T06:58:54.181Z,20
2019-02-10T07:00:02.080Z,20
2019-02-10T07:01:10.174Z,20
2019-02-10T07:02:18.249Z,20
2019-02-10T07:03:26.282Z,25
2019-02-10T07:04:34.340Z,25
2019-02-10T07:05:42.372Z,25
2019-02-10T07:06:50.453Z,25
2019-02-10T07:07:58.515Z,30
2019-02-10T07:09:06.649Z,30
2019-02-10T07:10:14.630Z,30
2019-02-10T07:11:22.720Z,30
2019-02-10T07:12:30.755Z,30
2019-02-10T07:13:38.794Z,35
2019-02-10T07:14:46.853Z,35
2019-02-10T07:15:54.920Z,35
2019-02-10T07:17:03.307Z,35
2019-02-10T07:18:11.039Z,35
2019-02-10T07:19:19.091Z,35
2019-02-10T07:20:27.163Z,35
2019-02-10T07:21:35.204Z,35
2019-02-10T07:22:43.265Z,35
2019-02-10T07:23:51.327Z,35
2019-02-10T07:24:59.397Z,40
2019-02-10T07:26:07.443Z,40
2019-02-10T07:27:15.503Z,40
2019-02-10T07:28:23.570Z,45
2019-02-10T07:29:31.613Z,45
2019-02-10T07:30:39.680Z,45
2019-02-10T07:31:47.726Z,45
2019-02-10T07:32:55.795Z,50
2019-02-10T07:34:03.844Z,50
2019-02-10T07:35:11.884Z,50
2019-02-10T07:36:19.976Z,55
2019-02-10T07:37:28.023Z,50
2019-02-10T07:38:38.598Z,50
2019-02-10T07:39:44.142Z,55
2019-02-10T07:40:52.168Z,55
2019-02-10T07:42:00.262Z,60
2019-02-10T07:43:08.330Z,60
2019-02-10T07:44:16.380Z,65
2019-02-10T07:45:24.424Z,70
2019-02-10T07:46:32.481Z,75
2019-02-10T07:47:40.574Z,80
2019-02-10T07:48:48.615Z,85
2019-02-10T07:49:56.677Z,85
2019-02-10T07:51:04.730Z,90
2019-02-10T07:52:12.783Z,95
2019-02-10T07:53:20.847Z,95
2019-02-10T07:54:28.881Z,105
2019-02-10T07:55:36.964Z,110
2019-02-10T07:56:45.040Z,115
2019-02-10T07:57:53.118Z,115
2019-02-10T07:59:01.145Z,110
2019-02-10T08:00:09.200Z,110
2019-02-10T08:01:17.252Z,105
2019-02-10T08:02:25.291Z,100
2019-02-10T08:03:33.373Z,100
2019-02-10T08:04:41.410Z,100
2019-02-10T08:05:49.498Z,100
2019-02-10T08:06:57.552Z,105
2019-02-10T08:08:05.586Z,110
2019-02-10T08:09:13.670Z,115
2019-02-10T08:10:21.699Z,120
2019-02-10T08:11:29.790Z,125
2019-02-10T08:12:37.878Z,130
2019-02-10T08:13:45.887Z,130
2019-02-10T08:14:53.987Z,135
2019-02-10T08:16:02.000Z,135
2019-02-10T08:17:10.088Z,145
2019-02-10T08:18:18.143Z,150
2019-02-10T08:19:26.199Z,160
2019-02-10T08:20:34.262Z,165
2019-02-10T08:21:42.288Z,165
2019-02-10T08:22:50.379Z,170
2019-02-10T08:23:58.441Z,175
2019-02-10T08:25:06.492Z,175
2019-02-10T08:26:14.551Z,175
2019-02-10T08:27:22.622Z,180
2019-02-10T08:28:31.669Z,180
2019-02-10T08:29:39.720Z,180
2019-02-10T08:30:47.782Z,180
2019-02-10T08:31:55.885Z,175
2019-02-10T08:33:03.913Z,170
2019-02-10T08:34:11.946Z,165
2019-02-10T08:35:20.027Z,165
2019-02-10T08:36:28.088Z,165
2019-02-10T08:37:36.162Z,165
2019-02-10T08:38:44.203Z,170
2019-02-10T08:39:52.236Z,170
2019-02-10T08:41:00.319Z,175
2019-02-10T08:42:08.395Z,190
2019-02-10T08:43:16.438Z,200
2019-02-10T08:44:24.499Z,220
2019-02-10T08:45:32.557Z,235
2019-02-10T08:46:40.622Z,240
2019-02-10T08:47:48.691Z,250
2019-02-10T08:48:56.789Z,260
2019-02-10T08:50:04.798Z,275
2019-02-10T08:51:12.879Z,285
2019-02-10T08:52:20.928Z,290
2019-02-10T08:53:28.975Z,290
2019-02-10T08:54:37.061Z,280
2019-02-10T08:55:45.102Z,275
2019-02-10T08:56:53.163Z,265
2019-02-10T08:58:01.213Z,250
2019-02-10T08:59:09.284Z,245
2019-02-10T09:00:17.349Z,230
2019-02-10T09:01:25.413Z,225
2019-02-10T09:02:33.465Z,215
2019-02-10T09:03:41.512Z,200
2019-02-10T09:04:49.599Z,190
2019-02-10T09:05:57.678Z,185
2019-02-10T09:07:05.727Z,180
2019-02-10T09:08:13.789Z,175
2019-02-10T09:09:21.815Z,170
2019-02-10T09:10:29.910Z,170
2019-02-10T09:11:37.957Z,170
2019-02-10T09:12:46.017Z,165
2019-02-10T09:13:57.101Z,170
2019-02-10T09:15:02.108Z,170
2019-02-10T09:16:10.203Z,180
2019-02-10T09:17:18.270Z,190
2019-02-10T09:18:26.339Z,205
2019-02-10T09:19:34.388Z,215
2019-02-10T09:20:42.425Z,215
2019-02-10T09:21:50.500Z,220
2019-02-10T09:22:58.575Z,215
2019-02-10T09:24:06.629Z,210
2019-02-10T09:25:14.734Z,205
2019-02-10T09:26:22.742Z,205
2019-02-10T09:27:30.915Z,205
2019-02-10T09:28:38.874Z,210
2019-02-10T09:29:46.940Z,195
2019-02-10T09:30:55.012Z,190
2019-02-10T09:32:03.062Z,195
2019-02-10T09:33:11.125Z,200
2019-02-10T09:34:19.197Z,210
2019-02-10T09:35:27.236Z,215
2019-02-10T09:36:35.341Z,210
2019-02-10T09:37:43.379Z,205
2019-02-10T09:38:51.413Z,200
2019-02-10T09:39:59.509Z,200
2019-02-10T09:41:07.555Z,200
2019-02-10T09:42:15.645Z,195
2019-02-10T09:43:23.675Z,205
2019-02-10T09:44:31.711Z,215
2019-02-10T09:45:39.795Z,220
2019-02-10T09:46:47.863Z,215
2019-02-10T09:47:55.900Z,230
2019-02-10T09:49:03.985Z,250
2019-02-10T09:50:12.019Z,270
2019-02-10T09:51:20.082Z,295
2019-02-10T09:52:28.154Z,315
2019-02-10T09:53:36.193Z,330
2019-02-10T09:54:44.284Z,325
2019-02-10T09:55:52.321Z,330
2019-02-10T09:57:00.406Z,330
2019-02-10T09:58:08.465Z,355
2019-02-10T09:59:16.522Z,365
2019-02-10T10:00:24.582Z,370
2019-02-10T10:01:32.707Z,370
2019-02-10T10:02:40.702Z,370
2019-02-10T10:03:48.780Z,380
2019-02-10T10:04:56.826Z,400
2019-02-10T10:06:04.909Z,400
2019-02-10T10:07:12.987Z,380
2019-02-10T10:08:21.044Z,360
2019-02-10T10:09:29.082Z,350
2019-02-10T10:10:37.150Z,330
2019-02-10T10:11:45.219Z,305
2019-02-10T10:12:53.311Z,280
2019-02-10T10:14:01.332Z,265
2019-02-10T10:15:09.398Z,250
2019-02-10T10:16:17.451Z,220
2019-02-10T10:17:25.525Z,200
2019-02-10T10:18:33.577Z,195
2019-02-10T10:19:41.622Z,200
2019-02-10T10:20:49.759Z,195
2019-02-10T10:21:57.818Z,200
2019-02-10T10:23:05.834Z,205
2019-02-10T10:24:13.885Z,205
2019-02-10T10:25:21.951Z,220
2019-02-10T10:26:30.021Z,250
2019-02-10T10:27:38.086Z,275
2019-02-10T10:28:46.145Z,265
2019-02-10T10:29:54.207Z,255
2019-02-10T10:31:02.257Z,260
2019-02-10T10:32:10.323Z,305
2019-02-10T10:33:18.384Z,325
2019-02-10T10:34:26.444Z,335
2019-02-10T10:35:34.522Z,340
2019-02-10T10:36:42.580Z,355
2019-02-10T10:37:50.758Z,375
2019-02-10T10:38:58.702Z,400
2019-02-10T10:40:06.782Z,410
2019-02-10T10:41:14.823Z,395
2019-02-10T10:42:22.877Z,390
2019-02-10T10:43:30.956Z,390
2019-02-10T10:44:39.020Z,380
2019-02-10T10:45:47.081Z,365
2019-02-10T10:46:55.150Z,355
2019-02-10T10:48:03.202Z,350
2019-02-10T10:49:11.279Z,355
2019-02-10T10:50:19.337Z,365
2019-02-10T10:51:27.394Z,370
2019-02-10T10:52:35.453Z,375
2019-02-10T10:53:43.528Z,360
2019-02-10T10:54:51.551Z,355
2019-02-10T10:55:59.663Z,350
2019-02-10T10:57:07.722Z,345
2019-02-10T10:58:15.783Z,330
2019-02-10T10:59:23.840Z,330
2019-02-10T11:00:31.872Z,335
2019-02-10T11:01:39.980Z,335
2019-02-10T11:02:48.034Z,335
2019-02-10T11:03:56.087Z,315
2019-02-10T11:05:04.151Z,315
2019-02-10T11:06:12.191Z,310
2019-02-10T11:07:20.282Z,300
2019-02-10T11:08:28.345Z,300
2019-02-10T11:09:36.396Z,315
2019-02-10T11:10:44.466Z,335
2019-02-10T11:11:52.529Z,345
2019-02-10T11:13:00.650Z,350
2019-02-10T11:14:08.671Z,370
2019-02-10T11:15:16.730Z,360
2019-02-10T11:16:24.796Z,355
2019-02-10T11:17:32.860Z,365
2019-02-10T11:18:40.921Z,380
2019-02-10T11:19:48.995Z,385
2019-02-10T11:20:57.068Z,375
2019-02-10T11:22:05.099Z,350
2019-02-10T11:23:13.166Z,350
2019-02-10T11:24:28.349Z,360
2019-02-10T11:25:29.298Z,390
2019-02-10T11:26:37.433Z,390
2019-02-10T11:27:45.432Z,375
2019-02-10T11:28:53.522Z,375
2019-02-10T11:30:01.555Z,380
2019-02-10T11:31:09.617Z,385
2019-02-10T11:32:17.683Z,380
2019-02-10T11:33:25.765Z,430
2019-02-10T11:34:33.818Z,430
2019-02-10T11:35:41.855Z,405
2019-02-10T11:36:49.958Z,380
2019-02-10T11:37:58.001Z,360
2019-02-10T11:39:06.069Z,350
2019-02-10T11:40:14.154Z,325
2019-02-10T11:41:22.184Z,310
2019-02-10T11:42:30.267Z,305
2019-02-10T11:43:38.341Z,310
2019-02-10T11:44:46.387Z,325
2019-02-10T11:45:54.462Z,340
2019-02-10T11:47:02.538Z,370
2019-02-10T11:48:10.587Z,435
2019-02-10T11:49:18.703Z,355
2019-02-10T11:50:26.718Z,315
2019-02-10T11:51:34.794Z,320
2019-02-10T11:52:42.846Z,330
2019-02-10T11:53:50.901Z,335
2019-02-10T11:54:58.961Z,345
2019-02-10T11:56:07.039Z,320
2019-02-10T11:57:15.115Z,315
2019-02-10T11:58:23.171Z,325
2019-02-10T11:59:31.267Z,340
2019-02-10T12:00:39.294Z,370
2019-02-10T12:01:47.380Z,380
2019-02-10T12:02:55.427Z,355
2019-02-10T12:04:03.485Z,380
2019-02-10T12:05:11.533Z,400
2019-02-10T12:06:19.620Z,390
2019-02-10T12:07:27.687Z,370
2019-02-10T12:08:35.960Z,390
2019-02-10T12:09:51.352Z,435
2019-02-10T12:10:51.862Z,465
2019-02-10T12:11:59.946Z,390
2019-02-10T12:13:08.011Z,375
2019-02-10T12:14:16.065Z,385
2019-02-10T12:15:24.151Z,325
2019-02-10T12:16:32.208Z,270
2019-02-10T12:17:40.264Z,240
2019-02-10T12:18:48.324Z,240
2019-02-10T12:19:56.431Z,255
2019-02-10T12:21:04.468Z,270
2019-02-10T12:22:12.521Z,330
2019-02-10T12:23:20.586Z,390
2019-02-10T12:24:28.654Z,375
2019-02-10T12:25:36.732Z,365
2019-02-10T12:26:44.797Z,425
2019-02-10T12:27:52.859Z,410
2019-02-10T12:29:00.929Z,400
2019-02-10T12:30:08.996Z,410
2019-02-10T12:31:17.063Z,425
2019-02-10T12:32:25.128Z,405
2019-02-10T12:33:33.180Z,375
2019-02-10T12:34:41.247Z,385
2019-02-10T12:35:49.297Z,380
2019-02-10T12:36:57.372Z,355
2019-02-10T12:38:05.445Z,345
2019-02-10T12:39:13.488Z,360
2019-02-10T12:40:21.566Z,340
2019-02-10T12:41:29.673Z,330
2019-02-10T12:42:37.711Z,325
2019-02-10T12:43:45.775Z,320
2019-02-10T12:44:53.845Z,340
2019-02-10T12:46:01.883Z,350
2019-02-10T12:47:09.979Z,340
2019-02-10T12:48:18.039Z,345
2019-02-10T12:49:26.089Z,355
2019-02-10T12:50:34.163Z,350
2019-02-10T12:51:42.199Z,320
2019-02-10T12:52:50.298Z,310
2019-02-10T12:53:58.355Z,310
2019-02-10T12:55:06.463Z,330
2019-02-10T12:56:14.492Z,340
2019-02-10T12:57:22.527Z,365
2019-02-10T12:58:30.623Z,375
2019-02-10T12:59:38.680Z,340
2019-02-10T13:00:46.744Z,285
2019-02-10T13:01:54.816Z,280
2019-02-10T13:03:02.876Z,295
2019-02-10T13:04:10.946Z,275
2019-02-10T13:05:19.040Z,245
2019-02-10T13:06:27.092Z,210
2019-02-10T13:07:35.141Z,160
2019-02-10T13:08:43.186Z,140
2019-02-10T13:09:51.258Z,140
2019-02-10T13:10:59.320Z,135
2019-02-10T13:12:07.391Z,110
2019-02-10T13:13:19.240Z,115
2019-02-10T13:14:23.527Z,140
2019-02-10T13:15:31.552Z,160
2019-02-10T13:16:39.645Z,150
2019-02-10T13:17:47.716Z,135
2019-02-10T13:18:55.781Z,145
2019-02-10T13:20:03.825Z,150
2019-02-10T13:21:11.873Z,155
2019-02-10T13:22:19.958Z,145
2019-02-10T13:23:28.042Z,135
2019-02-10T13:24:36.090Z,140
2019-02-10T13:25:44.158Z,130
2019-02-10T13:26:52.193Z,140
2019-02-10T13:28:00.272Z,135
2019-02-10T13:29:08.336Z,120
2019-02-10T13:30:16.392Z,115
2019-02-10T13:31:24.483Z,105
2019-02-10T13:32:32.555Z,105
2019-02-10T13:33:40.599Z,95
2019-02-10T13:34:48.670Z,100
2019-02-10T13:35:56.927Z,100
2019-02-10T13:37:04.797Z,100
2019-02-10T13:38:12.842Z,95
2019-02-10T13:39:20.914Z,90
2019-02-10T13:40:28.976Z,80
2019-02-10T13:41:37.051Z,85
2019-02-10T13:42:45.086Z,85
2019-02-10T13:43:53.154Z,95
2019-02-10T13:45:01.205Z,105
2019-02-10T13:46:09.285Z,110
2019-02-10T13:47:17.356Z,100
2019-02-10T13:48:25.477Z,80
2019-02-10T13:49:33.462Z,80
2019-02-10T13:50:41.549Z,75
2019-02-10T13:51:50.147Z,80
2019-02-10T13:52:58.052Z,90
2019-02-10T13:54:05.718Z,80
2019-02-10T13:55:13.788Z,70
2019-02-10T13:56:21.817Z,65
2019-02-10T13:57:29.890Z,65
2019-02-10T13:58:37.947Z,65
2019-02-10T13:59:46.033Z,65
2019-02-10T14:00:54.077Z,60
2019-02-10T14:02:02.117Z,60
2019-02-10T14:03:10.215Z,60
2019-02-10T14:04:18.273Z,60
2019-02-10T14:05:26.339Z,65
2019-02-10T14:06:34.387Z,65
2019-02-10T14:07:42.458Z,60
2019-02-10T14:08:50.515Z,60
2019-02-10T14:09:58.570Z,60
2019-02-10T14:11:06.651Z,65
2019-02-10T14:12:14.710Z,65
2019-02-10T14:13:23.356Z,65
2019-02-10T14:14:30.830Z,55
2019-02-10T14:15:38.894Z,65
2019-02-10T14:16:46.950Z,80
2019-02-10T14:17:55.018Z,80
2019-02-10T14:19:03.073Z,75
2019-02-10T14:20:11.126Z,65
2019-02-10T14:21:19.192Z,60
2019-02-10T14:22:27.254Z,55
2019-02-10T14:23:35.317Z,55
2019-02-10T14:24:43.375Z,55
2019-02-10T14:25:51.415Z,55
2019-02-10T14:26:59.493Z,50
2019-02-10T14:28:07.598Z,50
2019-02-10T14:29:15.619Z,45
2019-02-10T14:30:23.705Z,40
2019-02-10T14:31:31.718Z,35
2019-02-10T14:32:39.808Z,35
2019-02-10T14:33:47.861Z,35
2019-02-10T14:34:55.923Z,40
2019-02-10T14:36:03.999Z,40
2019-02-10T14:37:12.019Z,40
2019-02-10T14:38:20.108Z,40
2019-02-10T14:39:28.173Z,40
2019-02-10T14:40:36.249Z,40
2019-02-10T14:41:44.309Z,40
2019-02-10T14:42:52.326Z,40
2019-02-10T14:44:00.417Z,35
2019-02-10T14:45:08.489Z,40
2019-02-10T14:46:16.541Z,30
2019-02-10T14:47:24.607Z,30
2019-02-10T14:48:32.702Z,30
2019-02-10T14:49:40.730Z,30
2019-02-10T14:50:48.777Z,30
2019-02-10T14:51:56.836Z,30
2019-02-10T14:53:04.902Z,30
2019-02-10T14:54:12.974Z,30
2019-02-10T14:55:21.068Z,30
2019-02-10T14:56:29.073Z,30
2019-02-10T14:57:37.157Z,25
2019-02-10T14:58:45.211Z,25
2019-02-10T14:59:53.276Z,20
2019-02-10T15:01:01.551Z,20
2019-02-10T15:02:09.427Z,20
2019-02-10T15:03:17.465Z,15
2019-02-10T15:04:25.915Z,15
2019-02-10T15:05:33.651Z,15
2019-02-10T15:06:42.277Z,15
2019-02-10T15:07:49.883Z,15
2019-02-10T15:08:57.768Z,15
2019-02-10T15:10:05.823Z,15
2019-02-10T15:11:13.896Z,15
2019-02-10T15:12:21.940Z,15
2019-02-10T15:13:30.150Z,20
2019-02-10T15:14:38.075Z,20
2019-02-10T15:15:46.166Z,25
2019-02-10T15:16:54.203Z,25
2019-02-10T15:18:02.237Z,30
2019-02-10T15:19:10.328Z,25
2019-02-10T15:20:18.386Z,25
2019-02-10T15:21:26.469Z,25
2019-02-10T15:22:34.510Z,25
2019-02-10T15:23:42.567Z,35
2019-02-10T15:24:50.633Z,30
2019-02-10T15:25:58.701Z,30
2019-02-10T15:27:06.763Z,30
2019-02-10T15:28:14.804Z,25
2019-02-10T15:29:22.990Z,25
2019-02-10T15:30:30.954Z,20
2019-02-10T15:31:39.004Z,15
2019-02-10T15:32:48.937Z,20
2019-02-10T15:33:55.121Z,15
2019-02-10T15:35:03.626Z,15
2019-02-10T15:36:11.695Z,15
2019-02-10T15:37:19.373Z,15
2019-02-10T15:38:28.027Z,20
2019-02-10T15:39:35.422Z,20
2019-02-10T15:40:49.803Z,20
2019-02-10T15:41:51.751Z,20
2019-02-10T15:42:59.602Z,15
2019-02-10T15:44:07.703Z,20
2019-02-10T15:45:15.738Z,20
2019-02-10T15:46:23.794Z,20
2019-02-10T15:47:32.385Z,20
2019-02-10T15:48:39.905Z,15
2019-02-10T15:49:47.962Z,20
2019-02-10T15:50:56.014Z,20
2019-02-10T15:52:04.081Z,20
2019-02-10T15:53:12.133Z,20
2019-02-10T15:54:20.235Z,15
2019-02-10T15:55:28.268Z,20
2019-02-10T15:56:36.346Z,15
2019-02-10T15:57:44.386Z,20
2019-02-10T15:58:52.439Z,15
2019-02-10T16:00:00.507Z,20
2019-02-10T16:01:08.582Z,15
2019-02-10T16:02:16.644Z,15
2019-02-10T16:03:24.699Z,15
2019-02-10T16:04:32.754Z,15
2019-02-10T16:05:40.811Z,15
2019-02-10T16:06:48.871Z,15
2019-02-10T16:07:56.947Z,25
2019-02-10T16:09:04.994Z,25
2019-02-10T16:10:13.049Z,25
2019-02-10T16:11:21.139Z,20
2019-02-10T16:12:29.181Z,20